sensor_id;sensor_type;location;lat;lon;timestamp;P1;durP1;ratioP1;P2;durP2;ratioP2
42226;SDS011;27892;52.378;13.122;2023-04-29T00:01:21;8.00;;;7.00;;
42226;SDS011;27892;52.378;13.122;2023-04-29T00:03:48;9.83;;;8.27;;
42226;SDS011;27892;52.378;13.122;2023-04-29T00:06:13;7.83;;;7.03;;
42226;SDS011;27892;52.378;13.122;2023-04-29T00:08:39;5.50;;;5.00;;
42226;SDS011;27892;52.378;13.122;2023-04-29T00:11:05;6.00;;;5.00;;
42226;SDS011;27892;52.378;13.122;2023-04-29T00:13:31;7.10;;;6.33;;
42226;SDS011;27892;52.378;13.122;2023-04-29T00:15:57;6.83;;;5.97;;
42226;SDS011;27892;52.378;13.122;2023-04-29T00:18:22;6.63;;;5.40;;
42226;SDS011;27892;52.378;13.122;2023-04-29T00:20:48;7.60;;;6.80;;
42226;SDS011;27892;52.378;13.122;2023-04-29T00:23:14;8.70;;;7.80;;
42226;SDS011;27892;52.378;13.122;2023-04-29T00:25:39;8.53;;;7.17;;
42226;SDS011;27892;52.378;13.122;2023-04-29T00:28:05;6.20;;;5.60;;
42226;SDS011;27892;52.378;13.122;2023-04-29T00:30:31;4.80;;;4.40;;
42226;SDS011;27892;52.378;13.122;2023-04-29T00:32:58;4.37;;;4.07;;
42226;SDS011;27892;52.378;13.122;2023-04-29T00:35:24;4.07;;;3.77;;
42226;SDS011;27892;52.378;13.122;2023-04-29T00:37:50;4.27;;;3.97;;
42226;SDS011;27892;52.378;13.122;2023-04-29T00:40:15;7.00;;;6.30;;
42226;SDS011;27892;52.378;13.122;2023-04-29T00:42:41;6.23;;;5.63;;
42226;SDS011;27892;52.378;13.122;2023-04-29T00:45:08;5.20;;;4.70;;
42226;SDS011;27892;52.378;13.122;2023-04-29T00:47:35;5.00;;;4.50;;
42226;SDS011;27892;52.378;13.122;2023-04-29T00:50:01;4.83;;;4.33;;
42226;SDS011;27892;52.378;13.122;2023-04-29T00:52:28;5.53;;;5.03;;
42226;SDS011;27892;52.378;13.122;2023-04-29T00:54:56;9.60;;;7.00;;
42226;SDS011;27892;52.378;13.122;2023-04-29T00:57:22;6.43;;;5.63;;
42226;SDS011;27892;52.378;13.122;2023-04-29T00:59:50;6.47;;;5.70;;
42226;SDS011;27892;52.378;13.122;2023-04-29T01:02:16;6.27;;;5.67;;
42226;SDS011;27892;52.378;13.122;2023-04-29T01:04:43;5.63;;;5.13;;
42226;SDS011;27892;52.378;13.122;2023-04-29T01:07:22;6.63;;;6.03;;
42226;SDS011;27892;52.378;13.122;2023-04-29T01:10:14;5.30;;;4.80;;
42226;SDS011;27892;52.378;13.122;2023-04-29T01:13:05;9.07;;;6.80;;
42226;SDS011;27892;52.378;13.122;2023-04-29T01:16:00;7.83;;;7.03;;
42226;SDS011;27892;52.378;13.122;2023-04-29T01:18:45;6.27;;;5.30;;
42226;SDS011;27892;52.378;13.122;2023-04-29T01:21:19;5.20;;;4.60;;
42226;SDS011;27892;52.378;13.122;2023-04-29T01:23:45;4.67;;;4.27;;
42226;SDS011;27892;52.378;13.122;2023-04-29T01:26:10;4.90;;;4.40;;
42226;SDS011;27892;52.378;13.122;2023-04-29T01:29:39;5.63;;;5.10;;
42226;SDS011;27892;52.378;13.122;2023-04-29T01:31:53;5.73;;;5.13;;
42226;SDS011;27892;52.378;13.122;2023-04-29T01:34:41;11.03;;;9.50;;
42226;SDS011;27892;52.378;13.122;2023-04-29T01:45:16;11.23;;;9.40;;
42226;SDS011;27892;52.378;13.122;2023-04-29T01:47:43;7.63;;;6.83;;
42226;SDS011;27892;52.378;13.122;2023-04-29T01:50:10;6.50;;;5.90;;
42226;SDS011;27892;52.378;13.122;2023-04-29T01:52:36;7.20;;;6.30;;
42226;SDS011;27892;52.378;13.122;2023-04-29T01:55:02;11.13;;;9.10;;
42226;SDS011;27892;52.378;13.122;2023-04-29T01:57:28;8.60;;;7.70;;
42226;SDS011;27892;52.378;13.122;2023-04-29T01:59:54;8.53;;;7.23;;
42226;SDS011;27892;52.378;13.122;2023-04-29T02:02:21;10.50;;;9.00;;
42226;SDS011;27892;52.378;13.122;2023-04-29T02:04:47;10.07;;;8.90;;
42226;SDS011;27892;52.378;13.122;2023-04-29T02:07:14;10.40;;;9.30;;
42226;SDS011;27892;52.378;13.122;2023-04-29T02:09:40;10.13;;;8.53;;
42226;SDS011;27892;52.378;13.122;2023-04-29T02:12:06;10.10;;;8.87;;
42226;SDS011;27892;52.378;13.122;2023-04-29T02:14:32;9.50;;;8.50;;
42226;SDS011;27892;52.378;13.122;2023-04-29T02:16:58;12.37;;;9.37;;
42226;SDS011;27892;52.378;13.122;2023-04-29T02:19:24;9.00;;;7.67;;
42226;SDS011;27892;52.378;13.122;2023-04-29T02:21:50;6.53;;;5.90;;
42226;SDS011;27892;52.378;13.122;2023-04-29T02:24:15;6.70;;;6.00;;
42226;SDS011;27892;52.378;13.122;2023-04-29T02:26:41;9.47;;;8.47;;
42226;SDS011;27892;52.378;13.122;2023-04-29T02:29:07;9.07;;;7.90;;
42226;SDS011;27892;52.378;13.122;2023-04-29T02:31:32;14.47;;;10.37;;
42226;SDS011;27892;52.378;13.122;2023-04-29T02:33:58;10.13;;;9.00;;
42226;SDS011;27892;52.378;13.122;2023-04-29T02:36:24;9.80;;;8.53;;
42226;SDS011;27892;52.378;13.122;2023-04-29T02:38:50;7.37;;;6.67;;
42226;SDS011;27892;52.378;13.122;2023-04-29T02:41:19;7.07;;;6.37;;
42226;SDS011;27892;52.378;13.122;2023-04-29T02:43:45;9.40;;;8.50;;
42226;SDS011;27892;52.378;13.122;2023-04-29T02:46:11;10.83;;;9.07;;
42226;SDS011;27892;52.378;13.122;2023-04-29T02:48:36;8.03;;;7.23;;
42226;SDS011;27892;52.378;13.122;2023-04-29T02:51:02;10.77;;;9.10;;
42226;SDS011;27892;52.378;13.122;2023-04-29T02:53:28;8.73;;;7.43;;
42226;SDS011;27892;52.378;13.122;2023-04-29T02:55:54;10.47;;;9.03;;
42226;SDS011;27892;52.378;13.122;2023-04-29T02:58:19;11.20;;;9.37;;
42226;SDS011;27892;52.378;13.122;2023-04-29T03:00:45;12.37;;;9.73;;
42226;SDS011;27892;52.378;13.122;2023-04-29T03:03:11;8.87;;;7.97;;
42226;SDS011;27892;52.378;13.122;2023-04-29T03:05:37;7.30;;;6.60;;
42226;SDS011;27892;52.378;13.122;2023-04-29T03:08:03;6.83;;;6.13;;
42226;SDS011;27892;52.378;13.122;2023-04-29T03:10:29;6.07;;;5.47;;
42226;SDS011;27892;52.378;13.122;2023-04-29T03:12:55;6.10;;;5.50;;
42226;SDS011;27892;52.378;13.122;2023-04-29T03:15:20;7.60;;;6.80;;
42226;SDS011;27892;52.378;13.122;2023-04-29T03:17:46;9.07;;;7.43;;
42226;SDS011;27892;52.378;13.122;2023-04-29T03:20:12;7.23;;;6.20;;
42226;SDS011;27892;52.378;13.122;2023-04-29T03:22:38;8.73;;;6.60;;
42226;SDS011;27892;52.378;13.122;2023-04-29T03:25:04;8.30;;;7.40;;
42226;SDS011;27892;52.378;13.122;2023-04-29T03:27:31;8.27;;;7.37;;
42226;SDS011;27892;52.378;13.122;2023-04-29T03:29:56;8.33;;;7.47;;
42226;SDS011;27892;52.378;13.122;2023-04-29T03:32:22;9.93;;;8.40;;
42226;SDS011;27892;52.378;13.122;2023-04-29T03:34:48;9.80;;;8.50;;
42226;SDS011;27892;52.378;13.122;2023-04-29T03:37:13;10.60;;;8.67;;
42226;SDS011;27892;52.378;13.122;2023-04-29T03:39:40;9.23;;;8.23;;
42226;SDS011;27892;52.378;13.122;2023-04-29T03:42:06;10.50;;;9.40;;
42226;SDS011;27892;52.378;13.122;2023-04-29T03:44:32;11.10;;;8.70;;
42226;SDS011;27892;52.378;13.122;2023-04-29T03:46:58;12.67;;;10.37;;
42226;SDS011;27892;52.378;13.122;2023-04-29T03:49:24;12.33;;;9.90;;
42226;SDS011;27892;52.378;13.122;2023-04-29T03:51:50;12.23;;;10.27;;
42226;SDS011;27892;52.378;13.122;2023-04-29T03:54:16;13.10;;;10.60;;
42226;SDS011;27892;52.378;13.122;2023-04-29T03:56:41;12.37;;;10.17;;
42226;SDS011;27892;52.378;13.122;2023-04-29T03:59:07;11.63;;;9.50;;
42226;SDS011;27892;52.378;13.122;2023-04-29T04:01:33;11.20;;;9.67;;
42226;SDS011;27892;52.378;13.122;2023-04-29T04:03:59;8.70;;;7.47;;
42226;SDS011;27892;52.378;13.122;2023-04-29T04:06:25;8.73;;;7.57;;
42226;SDS011;27892;52.378;13.122;2023-04-29T04:08:50;10.80;;;8.83;;
42226;SDS011;27892;52.378;13.122;2023-04-29T04:11:16;12.40;;;10.43;;
42226;SDS011;27892;52.378;13.122;2023-04-29T04:13:42;10.00;;;9.00;;
42226;SDS011;27892;52.378;13.122;2023-04-29T04:16:08;9.00;;;8.10;;
42226;SDS011;27892;52.378;13.122;2023-04-29T04:18:37;8.37;;;7.47;;
42226;SDS011;27892;52.378;13.122;2023-04-29T04:21:07;7.67;;;6.87;;
42226;SDS011;27892;52.378;13.122;2023-04-29T04:23:34;6.00;;;5.40;;
42226;SDS011;27892;52.378;13.122;2023-04-29T04:26:00;7.30;;;6.53;;
42226;SDS011;27892;52.378;13.122;2023-04-29T04:28:26;7.53;;;6.73;;
42226;SDS011;27892;52.378;13.122;2023-04-29T04:30:52;6.30;;;5.70;;
42226;SDS011;27892;52.378;13.122;2023-04-29T04:33:17;13.20;;;10.00;;
42226;SDS011;27892;52.378;13.122;2023-04-29T04:35:43;10.90;;;9.40;;
42226;SDS011;27892;52.378;13.122;2023-04-29T04:38:09;9.87;;;7.67;;
42226;SDS011;27892;52.378;13.122;2023-04-29T04:40:42;10.03;;;8.07;;
42226;SDS011;27892;52.378;13.122;2023-04-29T04:43:08;7.70;;;6.80;;
42226;SDS011;27892;52.378;13.122;2023-04-29T04:45:34;6.90;;;6.17;;
42226;SDS011;27892;52.378;13.122;2023-04-29T04:48:00;9.20;;;7.10;;
42226;SDS011;27892;52.378;13.122;2023-04-29T04:50:27;11.80;;;9.70;;
42226;SDS011;27892;52.378;13.122;2023-04-29T04:52:55;18.00;;;12.37;;
42226;SDS011;27892;52.378;13.122;2023-04-29T04:55:21;12.07;;;9.63;;
42226;SDS011;27892;52.378;13.122;2023-04-29T04:57:47;9.80;;;7.67;;
42226;SDS011;27892;52.378;13.122;2023-04-29T05:00:13;10.30;;;8.87;;
42226;SDS011;27892;52.378;13.122;2023-04-29T05:02:38;15.40;;;11.70;;
42226;SDS011;27892;52.378;13.122;2023-04-29T05:05:04;12.83;;;9.77;;
42226;SDS011;27892;52.378;13.122;2023-04-29T05:07:31;12.80;;;10.50;;
42226;SDS011;27892;52.378;13.122;2023-04-29T05:09:57;14.30;;;10.97;;
42226;SDS011;27892;52.378;13.122;2023-04-29T05:12:22;13.20;;;9.67;;
42226;SDS011;27892;52.378;13.122;2023-04-29T05:14:53;13.87;;;11.27;;
42226;SDS011;27892;52.378;13.122;2023-04-29T05:17:19;12.83;;;9.50;;
42226;SDS011;27892;52.378;13.122;2023-04-29T05:19:44;17.87;;;12.27;;
42226;SDS011;27892;52.378;13.122;2023-04-29T05:22:10;13.93;;;10.73;;
42226;SDS011;27892;52.378;13.122;2023-04-29T05:24:36;11.47;;;9.47;;
42226;SDS011;27892;52.378;13.122;2023-04-29T05:27:02;17.90;;;12.67;;
42226;SDS011;27892;52.378;13.122;2023-04-29T05:29:28;14.90;;;11.10;;
42226;SDS011;27892;52.378;13.122;2023-04-29T05:31:54;17.50;;;12.77;;
42226;SDS011;27892;52.378;13.122;2023-04-29T05:34:20;21.50;;;15.20;;
42226;SDS011;27892;52.378;13.122;2023-04-29T05:36:46;16.73;;;12.67;;
42226;SDS011;27892;52.378;13.122;2023-04-29T05:39:11;16.43;;;12.20;;
42226;SDS011;27892;52.378;13.122;2023-04-29T05:41:37;14.60;;;11.27;;
42226;SDS011;27892;52.378;13.122;2023-04-29T05:44:03;16.50;;;11.57;;
42226;SDS011;27892;52.378;13.122;2023-04-29T05:46:29;12.93;;;9.73;;
42226;SDS011;27892;52.378;13.122;2023-04-29T05:48:55;15.90;;;11.77;;
42226;SDS011;27892;52.378;13.122;2023-04-29T05:51:21;21.70;;;14.90;;
42226;SDS011;27892;52.378;13.122;2023-04-29T05:53:46;18.10;;;13.60;;
42226;SDS011;27892;52.378;13.122;2023-04-29T05:56:12;20.13;;;14.43;;
42226;SDS011;27892;52.378;13.122;2023-04-29T05:58:38;18.53;;;13.73;;
42226;SDS011;27892;52.378;13.122;2023-04-29T06:01:04;19.80;;;13.90;;
42226;SDS011;27892;52.378;13.122;2023-04-29T06:03:29;17.97;;;12.87;;
42226;SDS011;27892;52.378;13.122;2023-04-29T06:05:55;15.20;;;11.60;;
42226;SDS011;27892;52.378;13.122;2023-04-29T06:08:21;18.43;;;12.57;;
42226;SDS011;27892;52.378;13.122;2023-04-29T06:10:46;14.30;;;11.37;;
42226;SDS011;27892;52.378;13.122;2023-04-29T06:13:15;16.13;;;11.60;;
42226;SDS011;27892;52.378;13.122;2023-04-29T06:15:41;14.57;;;9.50;;
42226;SDS011;27892;52.378;13.122;2023-04-29T06:18:07;12.47;;;9.23;;
42226;SDS011;27892;52.378;13.122;2023-04-29T06:20:32;14.27;;;11.10;;
42226;SDS011;27892;52.378;13.122;2023-04-29T06:22:58;15.57;;;11.53;;
42226;SDS011;27892;52.378;13.122;2023-04-29T06:25:24;16.23;;;12.07;;
42226;SDS011;27892;52.378;13.122;2023-04-29T06:27:49;14.60;;;11.03;;
42226;SDS011;27892;52.378;13.122;2023-04-29T06:30:15;14.53;;;10.07;;
42226;SDS011;27892;52.378;13.122;2023-04-29T06:32:41;16.53;;;11.63;;
42226;SDS011;27892;52.378;13.122;2023-04-29T06:35:07;17.70;;;12.53;;
42226;SDS011;27892;52.378;13.122;2023-04-29T06:37:32;13.27;;;9.67;;
42226;SDS011;27892;52.378;13.122;2023-04-29T06:39:58;19.83;;;13.20;;
42226;SDS011;27892;52.378;13.122;2023-04-29T06:42:24;17.57;;;12.37;;
42226;SDS011;27892;52.378;13.122;2023-04-29T06:44:50;18.07;;;12.33;;
42226;SDS011;27892;52.378;13.122;2023-04-29T06:47:15;18.37;;;12.73;;
42226;SDS011;27892;52.378;13.122;2023-04-29T06:49:41;14.77;;;10.87;;
42226;SDS011;27892;52.378;13.122;2023-04-29T06:52:09;14.27;;;10.83;;
42226;SDS011;27892;52.378;13.122;2023-04-29T06:54:35;14.30;;;10.67;;
42226;SDS011;27892;52.378;13.122;2023-04-29T06:57:01;14.10;;;9.60;;
42226;SDS011;27892;52.378;13.122;2023-04-29T06:59:27;17.03;;;12.27;;
42226;SDS011;27892;52.378;13.122;2023-04-29T07:01:52;20.37;;;14.03;;
42226;SDS011;27892;52.378;13.122;2023-04-29T07:04:18;21.60;;;14.83;;
42226;SDS011;27892;52.378;13.122;2023-04-29T07:06:44;20.50;;;14.97;;
42226;SDS011;27892;52.378;13.122;2023-04-29T07:09:11;17.87;;;13.50;;
42226;SDS011;27892;52.378;13.122;2023-04-29T07:11:38;17.33;;;11.67;;
42226;SDS011;27892;52.378;13.122;2023-04-29T07:14:04;24.73;;;15.13;;
42226;SDS011;27892;52.378;13.122;2023-04-29T07:16:31;20.30;;;13.90;;
42226;SDS011;27892;52.378;13.122;2023-04-29T07:18:58;23.53;;;15.60;;
42226;SDS011;27892;52.378;13.122;2023-04-29T07:21:24;22.20;;;14.27;;
42226;SDS011;27892;52.378;13.122;2023-04-29T07:23:50;20.40;;;13.77;;
42226;SDS011;27892;52.378;13.122;2023-04-29T07:26:16;20.80;;;13.60;;
42226;SDS011;27892;52.378;13.122;2023-04-29T07:28:43;20.90;;;12.97;;
42226;SDS011;27892;52.378;13.122;2023-04-29T07:31:09;18.27;;;11.93;;
42226;SDS011;27892;52.378;13.122;2023-04-29T07:33:38;21.60;;;13.63;;
42226;SDS011;27892;52.378;13.122;2023-04-29T07:36:04;21.93;;;13.50;;
42226;SDS011;27892;52.378;13.122;2023-04-29T07:38:31;21.00;;;12.90;;
42226;SDS011;27892;52.378;13.122;2023-04-29T07:40:57;17.03;;;11.23;;
42226;SDS011;27892;52.378;13.122;2023-04-29T07:43:23;21.37;;;12.60;;
42226;SDS011;27892;52.378;13.122;2023-04-29T07:45:49;22.20;;;14.43;;
42226;SDS011;27892;52.378;13.122;2023-04-29T07:48:15;20.73;;;13.77;;
42226;SDS011;27892;52.378;13.122;2023-04-29T07:50:40;19.57;;;12.80;;
42226;SDS011;27892;52.378;13.122;2023-04-29T07:53:07;21.20;;;13.40;;
42226;SDS011;27892;52.378;13.122;2023-04-29T07:55:32;22.00;;;15.10;;
42226;SDS011;27892;52.378;13.122;2023-04-29T07:57:58;21.03;;;13.53;;
42226;SDS011;27892;52.378;13.122;2023-04-29T08:00:24;22.63;;;14.40;;
42226;SDS011;27892;52.378;13.122;2023-04-29T08:02:52;18.43;;;13.37;;
42226;SDS011;27892;52.378;13.122;2023-04-29T08:05:18;18.53;;;12.40;;
42226;SDS011;27892;52.378;13.122;2023-04-29T08:07:48;19.67;;;13.23;;
42226;SDS011;27892;52.378;13.122;2023-04-29T08:10:14;18.87;;;12.57;;
42226;SDS011;27892;52.378;13.122;2023-04-29T08:12:40;18.17;;;12.77;;
42226;SDS011;27892;52.378;13.122;2023-04-29T08:15:09;18.27;;;12.47;;
42226;SDS011;27892;52.378;13.122;2023-04-29T08:17:35;19.90;;;13.03;;
42226;SDS011;27892;52.378;13.122;2023-04-29T08:20:01;19.13;;;12.77;;
42226;SDS011;27892;52.378;13.122;2023-04-29T08:22:26;20.40;;;13.03;;
42226;SDS011;27892;52.378;13.122;2023-04-29T08:24:52;17.93;;;12.03;;
42226;SDS011;27892;52.378;13.122;2023-04-29T08:27:17;17.77;;;11.67;;
42226;SDS011;27892;52.378;13.122;2023-04-29T08:29:45;15.80;;;11.50;;
42226;SDS011;27892;52.378;13.122;2023-04-29T08:32:11;22.07;;;13.13;;
42226;SDS011;27892;52.378;13.122;2023-04-29T08:34:36;22.47;;;14.83;;
42226;SDS011;27892;52.378;13.122;2023-04-29T08:37:02;20.60;;;12.93;;
42226;SDS011;27892;52.378;13.122;2023-04-29T08:39:28;19.50;;;12.33;;
42226;SDS011;27892;52.378;13.122;2023-04-29T08:41:58;17.53;;;12.33;;
42226;SDS011;27892;52.378;13.122;2023-04-29T08:44:27;17.73;;;12.37;;
42226;SDS011;27892;52.378;13.122;2023-04-29T08:46:54;18.80;;;12.37;;
42226;SDS011;27892;52.378;13.122;2023-04-29T08:49:21;23.33;;;14.17;;
42226;SDS011;27892;52.378;13.122;2023-04-29T08:51:47;21.10;;;13.67;;
42226;SDS011;27892;52.378;13.122;2023-04-29T08:54:15;25.40;;;15.00;;
42226;SDS011;27892;52.378;13.122;2023-04-29T08:56:43;26.97;;;16.70;;
42226;SDS011;27892;52.378;13.122;2023-04-29T08:59:10;25.57;;;15.80;;
42226;SDS011;27892;52.378;13.122;2023-04-29T09:01:38;20.93;;;13.97;;
42226;SDS011;27892;52.378;13.122;2023-04-29T09:06:59;27.53;;;16.73;;
42226;SDS011;27892;52.378;13.122;2023-04-29T09:09:25;23.43;;;14.87;;
42226;SDS011;27892;52.378;13.122;2023-04-29T09:11:51;27.07;;;15.83;;
42226;SDS011;27892;52.378;13.122;2023-04-29T09:14:17;22.60;;;14.10;;
42226;SDS011;27892;52.378;13.122;2023-04-29T09:16:47;23.83;;;15.17;;
42226;SDS011;27892;52.378;13.122;2023-04-29T09:21:58;30.33;;;17.10;;
42226;SDS011;27892;52.378;13.122;2023-04-29T09:24:28;26.53;;;15.23;;
42226;SDS011;27892;52.378;13.122;2023-04-29T09:26:54;21.57;;;13.60;;
42226;SDS011;27892;52.378;13.122;2023-04-29T09:29:21;19.13;;;13.00;;
42226;SDS011;27892;52.378;13.122;2023-04-29T09:31:47;18.90;;;12.00;;
42226;SDS011;27892;52.378;13.122;2023-04-29T09:34:13;22.83;;;15.20;;
42226;SDS011;27892;52.378;13.122;2023-04-29T09:36:41;23.23;;;14.80;;
42226;SDS011;27892;52.378;13.122;2023-04-29T09:39:19;26.07;;;16.87;;
42226;SDS011;27892;52.378;13.122;2023-04-29T09:44:18;16.47;;;11.63;;
42226;SDS011;27892;52.378;13.122;2023-04-29T09:46:52;17.23;;;11.93;;
42226;SDS011;27892;52.378;13.122;2023-04-29T09:49:27;19.57;;;13.43;;
42226;SDS011;27892;52.378;13.122;2023-04-29T09:51:58;24.97;;;16.43;;
42226;SDS011;27892;52.378;13.122;2023-04-29T09:54:27;24.73;;;16.93;;
42226;SDS011;27892;52.378;13.122;2023-04-29T09:56:54;27.53;;;17.90;;
42226;SDS011;27892;52.378;13.122;2023-04-29T09:59:21;20.50;;;14.60;;
42226;SDS011;27892;52.378;13.122;2023-04-29T10:01:49;26.60;;;17.90;;
42226;SDS011;27892;52.378;13.122;2023-04-29T10:04:25;29.33;;;18.13;;
42226;SDS011;27892;52.378;13.122;2023-04-29T10:06:53;28.50;;;17.37;;
42226;SDS011;27892;52.378;13.122;2023-04-29T10:09:20;22.30;;;15.13;;
42226;SDS011;27892;52.378;13.122;2023-04-29T10:11:47;22.70;;;15.53;;
42226;SDS011;27892;52.378;13.122;2023-04-29T10:14:16;24.17;;;15.63;;
42226;SDS011;27892;52.378;13.122;2023-04-29T10:16:44;25.30;;;16.47;;
42226;SDS011;27892;52.378;13.122;2023-04-29T10:19:14;31.33;;;19.53;;
42226;SDS011;27892;52.378;13.122;2023-04-29T10:21:44;28.20;;;17.77;;
42226;SDS011;27892;52.378;13.122;2023-04-29T10:24:13;26.37;;;16.90;;
42226;SDS011;27892;52.378;13.122;2023-04-29T10:26:41;30.43;;;18.63;;
42226;SDS011;27892;52.378;13.122;2023-04-29T10:29:08;37.30;;;22.80;;
42226;SDS011;27892;52.378;13.122;2023-04-29T10:31:37;36.83;;;21.10;;
42226;SDS011;27892;52.378;13.122;2023-04-29T10:34:05;34.47;;;20.30;;
42226;SDS011;27892;52.378;13.122;2023-04-29T10:36:31;29.77;;;18.40;;
42226;SDS011;27892;52.378;13.122;2023-04-29T10:38:59;28.43;;;16.77;;
42226;SDS011;27892;52.378;13.122;2023-04-29T10:41:36;33.40;;;20.60;;
42226;SDS011;27892;52.378;13.122;2023-04-29T10:44:08;31.50;;;19.43;;
42226;SDS011;27892;52.378;13.122;2023-04-29T10:46:34;29.13;;;18.00;;
42226;SDS011;27892;52.378;13.122;2023-04-29T10:49:05;32.37;;;19.70;;
42226;SDS011;27892;52.378;13.122;2023-04-29T10:51:32;30.77;;;19.90;;
42226;SDS011;27892;52.378;13.122;2023-04-29T10:54:03;30.10;;;20.70;;
42226;SDS011;27892;52.378;13.122;2023-04-29T10:56:36;27.43;;;19.47;;
42226;SDS011;27892;52.378;13.122;2023-04-29T10:59:04;28.43;;;19.87;;
42226;SDS011;27892;52.378;13.122;2023-04-29T11:04:09;34.20;;;20.37;;
42226;SDS011;27892;52.378;13.122;2023-04-29T11:09:10;32.50;;;21.93;;
42226;SDS011;27892;52.378;13.122;2023-04-29T11:11:42;28.73;;;20.83;;
42226;SDS011;27892;52.378;13.122;2023-04-29T11:14:11;31.03;;;21.17;;
42226;SDS011;27892;52.378;13.122;2023-04-29T11:16:45;27.30;;;20.00;;
42226;SDS011;27892;52.378;13.122;2023-04-29T11:19:19;25.40;;;18.10;;
42226;SDS011;27892;52.378;13.122;2023-04-29T11:21:45;23.43;;;17.30;;
42226;SDS011;27892;52.378;13.122;2023-04-29T11:24:11;25.20;;;18.23;;
42226;SDS011;27892;52.378;13.122;2023-04-29T11:26:40;21.40;;;16.23;;
42226;SDS011;27892;52.378;13.122;2023-04-29T11:29:07;20.93;;;15.80;;
42226;SDS011;27892;52.378;13.122;2023-04-29T11:31:36;20.70;;;15.57;;
42226;SDS011;27892;52.378;13.122;2023-04-29T11:34:03;23.60;;;17.00;;
42226;SDS011;27892;52.378;13.122;2023-04-29T11:36:31;16.33;;;13.80;;
42226;SDS011;27892;52.378;13.122;2023-04-29T11:38:58;18.47;;;13.83;;
42226;SDS011;27892;52.378;13.122;2023-04-29T11:41:25;18.17;;;13.13;;
42226;SDS011;27892;52.378;13.122;2023-04-29T11:43:55;19.60;;;15.70;;
42226;SDS011;27892;52.378;13.122;2023-04-29T11:46:23;18.77;;;14.53;;
42226;SDS011;27892;52.378;13.122;2023-04-29T11:48:50;19.87;;;15.47;;
42226;SDS011;27892;52.378;13.122;2023-04-29T11:51:16;14.43;;;12.33;;
42226;SDS011;27892;52.378;13.122;2023-04-29T11:53:46;18.30;;;14.40;;
42226;SDS011;27892;52.378;13.122;2023-04-29T11:56:12;17.17;;;13.40;;
42226;SDS011;27892;52.378;13.122;2023-04-29T11:58:38;19.87;;;14.03;;
42226;SDS011;27892;52.378;13.122;2023-04-29T12:01:03;18.13;;;13.10;;
42226;SDS011;27892;52.378;13.122;2023-04-29T12:03:30;22.43;;;15.33;;
42226;SDS011;27892;52.378;13.122;2023-04-29T12:05:57;19.50;;;13.57;;
42226;SDS011;27892;52.378;13.122;2023-04-29T12:08:23;17.30;;;14.23;;
42226;SDS011;27892;52.378;13.122;2023-04-29T12:10:57;18.20;;;12.70;;
42226;SDS011;27892;52.378;13.122;2023-04-29T12:13:24;14.23;;;11.53;;
42226;SDS011;27892;52.378;13.122;2023-04-29T12:15:52;23.63;;;17.13;;
42226;SDS011;27892;52.378;13.122;2023-04-29T12:18:18;18.77;;;14.47;;
42226;SDS011;27892;52.378;13.122;2023-04-29T12:20:47;20.40;;;15.67;;
42226;SDS011;27892;52.378;13.122;2023-04-29T12:23:21;16.47;;;13.03;;
42226;SDS011;27892;52.378;13.122;2023-04-29T12:25:48;12.30;;;10.70;;
42226;SDS011;27892;52.378;13.122;2023-04-29T12:28:19;15.27;;;12.63;;
42226;SDS011;27892;52.378;13.122;2023-04-29T12:30:45;14.30;;;11.17;;
42226;SDS011;27892;52.378;13.122;2023-04-29T12:33:17;14.83;;;11.83;;
42226;SDS011;27892;52.378;13.122;2023-04-29T12:35:46;13.23;;;10.93;;
42226;SDS011;27892;52.378;13.122;2023-04-29T12:38:25;13.83;;;11.23;;
42226;SDS011;27892;52.378;13.122;2023-04-29T12:40:55;13.33;;;10.33;;
42226;SDS011;27892;52.378;13.122;2023-04-29T12:46:02;12.93;;;9.63;;
42226;SDS011;27892;52.378;13.122;2023-04-29T12:48:30;10.43;;;8.27;;
42226;SDS011;27892;52.378;13.122;2023-04-29T12:51:02;9.87;;;8.67;;
42226;SDS011;27892;52.378;13.122;2023-04-29T12:53:29;10.77;;;8.10;;
42226;SDS011;27892;52.378;13.122;2023-04-29T12:55:55;8.67;;;7.70;;
42226;SDS011;27892;52.378;13.122;2023-04-29T12:58:21;10.83;;;8.03;;
42226;SDS011;27892;52.378;13.122;2023-04-29T13:00:47;10.30;;;7.43;;
42226;SDS011;27892;52.378;13.122;2023-04-29T13:03:13;7.87;;;6.30;;
42226;SDS011;27892;52.378;13.122;2023-04-29T13:05:39;8.10;;;6.83;;
42226;SDS011;27892;52.378;13.122;2023-04-29T13:08:05;6.87;;;6.17;;
42226;SDS011;27892;52.378;13.122;2023-04-29T13:10:32;8.57;;;7.10;;
42226;SDS011;27892;52.378;13.122;2023-04-29T13:13:01;5.87;;;5.23;;
42226;SDS011;27892;52.378;13.122;2023-04-29T13:15:26;4.97;;;4.47;;
42226;SDS011;27892;52.378;13.122;2023-04-29T13:17:52;6.07;;;5.13;;
42226;SDS011;27892;52.378;13.122;2023-04-29T13:20:19;6.80;;;4.83;;
42226;SDS011;27892;52.378;13.122;2023-04-29T13:22:45;5.30;;;4.80;;
42226;SDS011;27892;52.378;13.122;2023-04-29T13:25:12;4.50;;;4.10;;
42226;SDS011;27892;52.378;13.122;2023-04-29T13:27:39;4.20;;;3.80;;
42226;SDS011;27892;52.378;13.122;2023-04-29T13:32:30;6.93;;;5.47;;
42226;SDS011;27892;52.378;13.122;2023-04-29T13:34:56;6.33;;;5.30;;
42226;SDS011;27892;52.378;13.122;2023-04-29T13:37:22;6.00;;;5.40;;
42226;SDS011;27892;52.378;13.122;2023-04-29T13:39:47;7.90;;;5.83;;
42226;SDS011;27892;52.378;13.122;2023-04-29T13:42:13;7.90;;;6.33;;
42226;SDS011;27892;52.378;13.122;2023-04-29T13:44:39;6.80;;;5.68;;
42226;SDS011;27892;52.378;13.122;2023-04-29T13:47:08;6.28;;;5.68;;
42226;SDS011;27892;52.378;13.122;2023-04-29T13:49:38;8.35;;;5.97;;
42226;SDS011;27892;52.378;13.122;2023-04-29T13:52:04;5.35;;;4.60;;
42226;SDS011;27892;52.378;13.122;2023-04-29T13:54:30;5.28;;;4.68;;
42226;SDS011;27892;52.378;13.122;2023-04-29T13:56:56;5.05;;;4.35;;
42226;SDS011;27892;52.378;13.122;2023-04-29T13:59:22;5.05;;;4.43;;
42226;SDS011;27892;52.378;13.122;2023-04-29T14:01:47;6.68;;;5.38;;
42226;SDS011;27892;52.378;13.122;2023-04-29T14:04:15;7.32;;;4.80;;
42226;SDS011;27892;52.378;13.122;2023-04-29T14:06:44;6.07;;;4.72;;
42226;SDS011;27892;52.378;13.122;2023-04-29T14:09:09;5.53;;;4.32;;
42226;SDS011;27892;52.378;13.122;2023-04-29T14:11:35;6.15;;;5.55;;
42226;SDS011;27892;52.378;13.122;2023-04-29T14:14:01;4.25;;;3.85;;
42226;SDS011;27892;52.378;13.122;2023-04-29T14:16:27;5.53;;;5.05;;
42226;SDS011;27892;52.378;13.122;2023-04-29T14:18:53;7.15;;;5.63;;
42226;SDS011;27892;52.378;13.122;2023-04-29T14:21:19;6.35;;;5.38;;
42226;SDS011;27892;52.378;13.122;2023-04-29T14:23:46;6.43;;;5.13;;
42226;SDS011;27892;52.378;13.122;2023-04-29T14:26:13;6.37;;;5.13;;
42226;SDS011;27892;52.378;13.122;2023-04-29T14:28:38;6.27;;;5.67;;
42226;SDS011;27892;52.378;13.122;2023-04-29T14:31:04;6.20;;;5.00;;
42226;SDS011;27892;52.378;13.122;2023-04-29T14:33:30;7.77;;;5.33;;
42226;SDS011;27892;52.378;13.122;2023-04-29T14:35:55;6.50;;;4.70;;
42226;SDS011;27892;52.378;13.122;2023-04-29T14:38:21;4.43;;;4.03;;
42226;SDS011;27892;52.378;13.122;2023-04-29T14:40:47;4.40;;;3.30;;
42226;SDS011;27892;52.378;13.122;2023-04-29T14:43:13;3.78;;;3.40;;
42226;SDS011;27892;52.378;13.122;2023-04-29T14:45:38;4.40;;;3.73;;